Tropical Cyclones
[Index]
Main Index Home Page Stock Weather Photos Extreme Storms Discussion Storm News and Storm Chasing Reports Tropical Cyclones / Hurricanes / Typhoons Weather Data and Links Wild Fires / Bushfires Weather Observation Techniques Weather Picture Catalogue Tornado Pictures and Reports Stock Video Footage and DVDs for sale
Season 2010-2011 Tropical Cyclone WILMA Track Map
Season 2010-2011 Summaries: [BoM-AU] [JTWC-AU] [JTWC-SIO] [JTWC-SPAC] [JTWC-SH]
<<- Previous TC | JTWC 2010-2011 Season | Next TC ->>

click for intensity scale information  Lat/long Grid: Show Hide

 Date Labels: Show Hide

Joint Typhoon Warning Centre Cyclone Data

Name: WILMA

20 Jan 2011 06:00 UTC to 28 Jan 2011 18:00 UTC

    date/time    lat    long     hPa   cat  kts
2011-01-20 06   12.9   177.9W   1007         20          
2011-01-20 12   13.2   177.1W   1007         20          
2011-01-20 18   13.7   176.7W   1007         20          
2011-01-21 00   14.0   176.3W   1004         25          
2011-01-21 06   14.1   175.7W   1000         30          
2011-01-21 12   14.0   175.0W   1000         30          
2011-01-21 18   14.0   174.2W   1000         30          
2011-01-22 00   13.7   173.4W    996         35          
2011-01-22 06   12.8   172.9W    993    1    40          
2011-01-22 12   12.0   172.3W    985    1    50          
2011-01-22 18   11.7   171.2W    985    1    50          
2011-01-23 00   12.0   171.3W    989    1    45          
2011-01-23 06   12.5   171.0W    989    1    45          
2011-01-23 12   13.2   171.0W    985    1    50          
2011-01-23 18   14.0   170.9W    985    1    50          
2011-01-24 00   14.9   170.9W    978    2    60          
2011-01-24 00   14.9   170.9W    978    2    60          
2011-01-24 06   15.9   171.0W    978    2    60          
2011-01-24 06   15.9   171.0W    978    2    60          
2011-01-24 12   17.1   171.8W    974    2    65          
2011-01-24 12   17.1   171.8W    974    2    65          
2011-01-24 18   19.0   173.2W    970    2    70          
2011-01-24 18   19.0   173.2W    970    2    70          
2011-01-24 18   19.0   173.2W    970    2    70          
2011-01-25 00   20.4   175.2W    967    3    75          
2011-01-25 00   20.4   175.2W    967    3    75          
2011-01-25 00   20.4   175.2W    967    3    75          
2011-01-25 06   21.6   177.4W    956    3    90          
2011-01-25 06   21.6   177.4W    956    3    90          
2011-01-25 06   21.6   177.4W    956    3    90          
2011-01-25 12   22.4   179.9W    959    3    90          
2011-01-25 12   22.4   179.9W    959    3    90          
2011-01-25 12   22.4   179.9W    959    3    90          
2011-01-25 18   22.6   178.4     952    3    95          
2011-01-25 18   22.6   178.4     952    3    95          
2011-01-25 18   22.6   178.4     952    3    95          
2011-01-26 00   23.0   176.9     941    4   110          
2011-01-26 00   23.0   176.9     941    4   110          
2011-01-26 00   23.0   176.9     941    4   110          
2011-01-26 06   23.4   175.8     937    4   115          
2011-01-26 06   23.4   175.8     937    4   115          
2011-01-26 06   23.4   175.8     937    4   115          
2011-01-26 12   23.8   175.1     937    4   115          
2011-01-26 12   23.8   175.1     937    4   115          
2011-01-26 12   23.8   175.1     937    4   115          
2011-01-26 18   24.5   174.2     944    4   105          
2011-01-26 18   24.5   174.2     944    4   105          
2011-01-26 18   24.5   174.2     944    4   105          
2011-01-27 00   25.3   173.3     948    4   100          
2011-01-27 00   25.3   173.3     948    4   100          
2011-01-27 00   25.3   173.3     948    4   100          
2011-01-27 06   26.2   172.5     956    3    90          
2011-01-27 06   26.2   172.5     956    3    90          
2011-01-27 06   26.2   172.5     956    3    90          
2011-01-27 12   27.1   171.6     967    3    75          
2011-01-27 12   27.1   171.6     967    3    75          
2011-01-27 12   27.1   171.6     967    3    75          
2011-01-27 18   28.2   171.5     974    2    65          
2011-01-27 18   28.2   171.5     974    2    65          
2011-01-27 18   28.2   171.5     974    2    65          
2011-01-28 00   30.0   171.7     982    2    55          
2011-01-28 00   30.0   171.7     982    2    55          
2011-01-28 06   31.6   172.7     989    1    45          
2011-01-28 12   34.2   174.5     989    1    45          
2011-01-28 18   36.8   178.1     989    1    45          
Winds are 1-min average.

Tropical cyclone tracks developed by Michael Bath using data from the Joint Typhoon Warning Centre Best Tracks and Google Maps.


[Australian Severe Weather index] [Copyright Notice] [Email Contacts] [Search This Site] [Privacy Policy]
Document: tropical_cyclone_wilma.htm Updated: 28 June 2017